Time;durP1;ratioP1;P1;durP2;ratioP2;P2;SDS_P1;SDS_P2;PMS_P1;PMS_P2;Temp;Humidity;BMP_temperature;BMP_pressure;BME280_temperature;BME280_humidity;BME280_pressure;Samples;Min_cycle;Max_cycle;Signal;HPM_P1;HPM_P2
2022/10/19 00:01:23;;;;;;;3.75;0.98;;;16.60;90.20;;;;;;5032959;28;20056;-76
2022/10/19 00:03:53;;;;;;;3.60;0.60;;;16.60;90.10;;;;;;5032859;28;20021;-76
2022/10/19 00:06:31;;;;;;;7.55;0.63;;;16.60;90.20;;;;;;5032492;28;20029;-76
2022/10/19 00:08:59;;;;;;;8.18;0.80;;;16.70;90.20;;;;;;5032662;28;20117;-76
2022/10/19 00:11:27;;;;;;;4.75;0.45;;;16.70;90.30;;;;;;5036341;28;20109;-75
2022/10/19 00:13:54;;;;;;;4.70;0.60;;;16.70;90.40;;;;;;5036286;28;20443;-75
2022/10/19 00:16:20;;;;;;;5.40;0.50;;;16.70;90.20;;;;;;5035960;28;20017;-75
2022/10/19 00:18:46;;;;;;;4.10;0.60;;;16.60;90.30;;;;;;5036366;28;20033;-75
2022/10/19 00:21:15;;;;;;;7.10;0.50;;;16.70;90.20;;;;;;5039292;28;20022;-73
2022/10/19 00:23:42;;;;;;;5.00;0.60;;;16.60;90.00;;;;;;5052998;28;20025;-75
2022/10/19 00:26:08;;;;;;;7.80;0.80;;;16.60;90.10;;;;;;5037086;28;20033;-75
2022/10/19 00:28:34;;;;;;;6.68;0.68;;;16.50;89.50;;;;;;5035740;28;20048;-75
2022/10/19 00:31:14;;;;;;;4.07;0.45;;;16.50;89.90;;;;;;5035986;28;20393;-75
2022/10/19 00:33:41;;;;;;;4.65;0.73;;;16.40;90.00;;;;;;5036227;28;20092;-75
2022/10/19 00:36:16;;;;;;;2.55;0.32;;;16.50;90.00;;;;;;5034647;28;20038;-75
2022/10/19 00:38:42;;;;;;;4.88;1.05;;;16.40;89.70;;;;;;5035852;28;20021;-75
2022/10/19 00:41:08;;;;;;;1.50;0.20;;;16.50;90.00;;;;;;5035845;28;20033;-75
2022/10/19 00:43:52;;;;;;;2.45;0.38;;;16.40;90.20;;;;;;5035732;28;20017;-75
2022/10/19 00:46:18;;;;;;;4.45;0.50;;;16.40;90.10;;;;;;5035819;28;20045;-75
2022/10/19 00:48:44;;;;;;;3.75;0.40;;;16.40;90.30;;;;;;5035953;28;20025;-75
2022/10/19 00:51:09;;;;;;;2.35;0.38;;;16.40;90.20;;;;;;5035369;28;20037;-76
2022/10/19 00:53:35;;;;;;;4.07;0.50;;;16.40;90.10;;;;;;5035842;28;20105;-75
2022/10/19 00:56:06;;;;;;;5.30;0.50;;;16.40;90.20;;;;;;5035852;28;20025;-75
2022/10/19 00:58:32;;;;;;;5.97;0.57;;;16.40;90.30;;;;;;5035539;28;20117;-75
2022/10/19 01:01:03;;;;;;;4.40;0.60;;;16.40;90.30;;;;;;5035177;28;20402;-75
2022/10/19 01:03:28;;;;;;;4.72;0.82;;;16.40;90.20;;;;;;5035486;28;20021;-75
2022/10/19 01:05:54;;;;;;;6.07;0.77;;;16.40;89.90;;;;;;5035426;28;20059;-75
2022/10/19 01:08:20;;;;;;;4.95;0.60;;;16.30;89.60;;;;;;5035197;28;20426;-75
2022/10/19 01:11:00;;;;;;;4.55;0.50;;;16.30;89.80;;;;;;5035306;28;20028;-75
2022/10/19 01:13:38;;;;;;;4.47;0.40;;;16.20;89.80;;;;;;5035086;28;20026;-75
2022/10/19 01:16:18;;;;;;;5.75;1.13;;;16.30;90.10;;;;;;5050007;28;20029;-74
2022/10/19 01:19:01;;;;;;;6.28;0.63;;;16.30;90.10;;;;;;5055560;28;20035;-74
2022/10/19 01:21:38;;;;;;;2.20;0.43;;;16.30;90.10;;;;;;5039385;28;20098;-75
2022/10/19 01:24:18;;;;;;;4.97;0.60;;;16.30;89.90;;;;;;5035031;28;20473;-75
2022/10/19 01:27:04;;;;;;;4.68;0.85;;;16.20;89.80;;;;;;5034617;28;20104;-75
2022/10/19 01:30:07;;;;;;;5.65;1.30;;;16.20;89.60;;;;;;5034650;28;20102;-75
2022/10/19 01:32:54;;;;;;;3.40;0.82;;;16.20;89.20;;;;;;5034765;28;20465;-75
2022/10/19 01:35:52;;;;;;;3.00;0.60;;;16.20;89.20;;;;;;5034740;28;20067;-75
2022/10/19 01:38:37;;;;;;;2.38;0.70;;;16.20;89.30;;;;;;5026140;28;20049;-75
2022/10/19 01:41:08;;;;;;;4.95;0.73;;;16.20;89.50;;;;;;5034784;28;20022;-75
2022/10/19 01:43:47;;;;;;;5.80;0.63;;;16.20;89.40;;;;;;5034595;28;20116;-75
2022/10/19 01:46:29;;;;;;;5.13;0.63;;;16.20;89.30;;;;;;5034456;28;20045;-75
2022/10/19 01:49:07;;;;;;;2.03;0.30;;;16.20;89.40;;;;;;5034717;28;20029;-75
2022/10/19 01:51:40;;;;;;;2.85;0.40;;;16.20;89.50;;;;;;5034441;28;20064;-75
2022/10/19 01:54:11;;;;;;;2.85;0.60;;;16.20;89.40;;;;;;5034407;28;20371;-75
2022/10/19 01:56:38;;;;;;;3.42;0.40;;;16.10;88.70;;;;;;5034784;28;20047;-75
2022/10/19 01:59:06;;;;;;;7.10;0.50;;;16.10;88.60;;;;;;5034629;28;20029;-75
2022/10/19 02:01:35;;;;;;;4.47;0.47;;;16.10;88.90;;;;;;5034379;28;20481;-75
2022/10/19 02:04:03;;;;;;;2.38;0.50;;;16.20;89.30;;;;;;5034551;28;20465;-75
2022/10/19 02:06:28;;;;;;;4.57;0.77;;;16.20;89.50;;;;;;5034112;28;20038;-75
2022/10/19 02:08:54;;;;;;;3.97;0.45;;;16.20;89.70;;;;;;5034469;28;20100;-75
2022/10/19 02:11:22;;;;;;;1.45;0.32;;;16.10;88.70;;;;;;5034213;28;20037;-75
2022/10/19 02:14:00;;;;;;;4.43;0.75;;;16.20;88.40;;;;;;5033856;28;20577;-74
2022/10/19 02:16:33;;;;;;;1.95;0.22;;;16.10;88.40;;;;;;5053178;28;20029;-74
2022/10/19 02:19:00;;;;;;;2.88;0.20;;;16.10;88.50;;;;;;5034379;28;20021;-75
2022/10/19 02:21:26;;;;;;;5.55;0.40;;;16.10;88.70;;;;;;5034600;28;20029;-75
2022/10/19 02:23:52;;;;;;;3.88;0.30;;;16.10;88.70;;;;;;5034357;28;20021;-75
2022/10/19 02:26:19;;;;;;;3.85;0.70;;;16.10;88.80;;;;;;5034149;28;20228;-74
2022/10/19 02:28:45;;;;;;;2.33;0.28;;;16.10;89.20;;;;;;5033996;28;20136;-75
2022/10/19 02:31:11;;;;;;;2.78;0.52;;;16.00;89.50;;;;;;5034069;28;20067;-75
2022/10/19 02:33:37;;;;;;;2.05;0.40;;;16.10;89.30;;;;;;5033881;28;20475;-75
2022/10/19 02:36:03;;;;;;;2.05;0.35;;;16.00;89.20;;;;;;5034089;28;20155;-75
2022/10/19 02:38:28;;;;;;;4.80;0.35;;;16.00;89.30;;;;;;5033836;28;20018;-76
2022/10/19 02:40:59;;;;;;;3.92;0.40;;;16.00;89.10;;;;;;5034027;28;20481;-75
2022/10/19 02:43:27;;;;;;;5.60;0.50;;;16.00;88.80;;;;;;5034130;28;20025;-75
2022/10/19 02:46:01;;;;;;;4.80;0.40;;;15.90;88.30;;;;;;5033557;28;20029;-76
2022/10/19 02:48:30;;;;;;;1.70;0.30;;;15.90;88.40;;;;;;5034259;28;20385;-76
2022/10/19 02:50:56;;;;;;;2.60;0.28;;;15.80;88.40;;;;;;5033858;28;20040;-76
2022/10/19 02:53:21;;;;;;;2.88;0.40;;;15.80;88.40;;;;;;5033788;28;20105;-76
2022/10/19 02:55:48;;;;;;;3.80;0.45;;;15.70;88.50;;;;;;5033609;28;20113;-76
2022/10/19 02:58:14;;;;;;;3.92;0.43;;;15.70;88.40;;;;;;5033823;28;20029;-76
2022/10/19 03:00:40;;;;;;;5.88;0.28;;;15.70;88.10;;;;;;5033727;28;20030;-76
2022/10/19 03:03:05;;;;;;;3.25;0.40;;;15.70;88.00;;;;;;5033257;28;20496;-75
2022/10/19 03:05:31;;;;;;;1.52;0.20;;;15.70;88.30;;;;;;5033256;28;20362;-75
2022/10/19 03:07:57;;;;;;;5.30;0.30;;;15.60;88.00;;;;;;5033143;28;20026;-75
2022/10/19 03:10:23;;;;;;;4.13;0.30;;;15.60;88.10;;;;;;5033733;28;20030;-75
2022/10/19 03:12:48;;;;;;;1.92;0.30;;;15.60;88.00;;;;;;5050574;28;20040;-73
2022/10/19 03:15:15;;;;;;;4.50;0.40;;;15.60;88.20;;;;;;5040266;28;20358;-76
2022/10/19 03:17:41;;;;;;;1.80;0.65;;;15.50;88.00;;;;;;5033633;28;20547;-76
2022/10/19 03:20:08;;;;;;;4.20;0.43;;;15.50;88.20;;;;;;5033147;28;20061;-76
2022/10/19 03:22:33;;;;;;;3.88;0.30;;;15.50;88.20;;;;;;5032771;28;20029;-76
2022/10/19 03:24:59;;;;;;;2.97;0.38;;;15.40;88.00;;;;;;5033376;28;20088;-76
2022/10/19 03:27:24;;;;;;;6.18;0.20;;;15.40;88.20;;;;;;5033103;28;20474;-76
2022/10/19 03:29:50;;;;;;;4.57;0.50;;;15.40;88.70;;;;;;5032970;28;20045;-76
2022/10/19 03:32:16;;;;;;;3.95;0.30;;;15.40;89.20;;;;;;5032719;28;20021;-76
2022/10/19 03:34:41;;;;;;;3.55;0.35;;;15.40;89.30;;;;;;5032951;28;20022;-75
2022/10/19 03:37:07;;;;;;;2.10;0.30;;;15.40;89.90;;;;;;5033279;28;20025;-76
2022/10/19 03:39:33;;;;;;;2.88;0.30;;;15.50;90.10;;;;;;5033211;28;20018;-76
2022/10/19 03:41:59;;;;;;;3.63;0.40;;;15.50;89.80;;;;;;5032083;28;20115;-76
2022/10/19 03:44:25;;;;;;;4.53;0.60;;;15.50;89.80;;;;;;5033544;28;20466;-75
2022/10/19 03:46:50;;;;;;;2.28;0.22;;;15.50;89.80;;;;;;5036460;28;20029;-76
2022/10/19 03:49:16;;;;;;;3.13;0.30;;;15.40;89.50;;;;;;5036986;28;20052;-75
2022/10/19 03:51:42;;;;;;;3.08;0.30;;;15.50;89.80;;;;;;5036690;28;20021;-76
2022/10/19 03:54:12;;;;;;;2.95;0.30;;;15.50;89.80;;;;;;5036935;28;20013;-76
2022/10/19 03:56:37;;;;;;;4.95;0.30;;;15.50;89.50;;;;;;5036803;28;20033;-76
2022/10/19 03:59:05;;;;;;;3.45;0.60;;;15.50;89.40;;;;;;5036500;28;20032;-76
2022/10/19 04:01:33;;;;;;;2.45;0.30;;;15.50;89.60;;;;;;5036710;28;20057;-76
2022/10/19 04:04:01;;;;;;;3.05;0.20;;;15.50;89.50;;;;;;5036501;28;20405;-76
2022/10/19 04:06:30;;;;;;;3.75;0.20;;;15.50;89.60;;;;;;5036373;28;20565;-76
2022/10/19 04:08:56;;;;;;;2.15;0.20;;;15.50;89.60;;;;;;5040725;28;20016;-74
2022/10/19 04:11:28;;;;;;;2.60;0.30;;;15.50;89.60;;;;;;5049361;28;20029;-75
2022/10/19 04:13:55;;;;;;;2.93;0.20;;;15.50;89.50;;;;;;5036684;28;20083;-75
2022/10/19 04:16:22;;;;;;;2.28;0.30;;;15.50;89.50;;;;;;5036216;28;20813;-76
2022/10/19 04:18:48;;;;;;;3.83;0.40;;;15.40;89.20;;;;;;5036506;28;20025;-75
2022/10/19 04:21:34;;;;;;;2.65;0.40;;;15.50;89.20;;;;;;5036324;28;20025;-75
2022/10/19 04:24:06;;;;;;;3.05;0.30;;;15.50;89.50;;;;;;5035988;28;20026;-74
2022/10/19 04:26:36;;;;;;;2.90;0.20;;;15.40;89.40;;;;;;5036127;28;20370;-75
2022/10/19 04:29:02;;;;;;;2.55;0.30;;;15.50;89.60;;;;;;5035972;28;20148;-74
2022/10/19 04:31:28;;;;;;;2.58;0.25;;;15.50;89.50;;;;;;5035659;28;20104;-74
2022/10/19 04:33:54;;;;;;;5.68;0.40;;;15.40;89.20;;;;;;5036285;28;20117;-74
2022/10/19 04:36:20;;;;;;;2.65;0.35;;;15.40;88.90;;;;;;5036022;28;20029;-74
2022/10/19 04:38:45;;;;;;;5.10;0.40;;;15.40;88.80;;;;;;5036168;28;20025;-74
2022/10/19 04:41:14;;;;;;;3.35;0.50;;;15.30;88.70;;;;;;5035975;28;20473;-74
2022/10/19 04:43:39;;;;;;;3.42;0.38;;;15.30;88.90;;;;;;5035922;28;20025;-74
2022/10/19 04:46:08;;;;;;;3.55;0.30;;;15.30;89.00;;;;;;5035400;28;20033;-74
2022/10/19 04:48:35;;;;;;;2.88;0.50;;;15.30;88.90;;;;;;5035985;28;20355;-75
2022/10/19 04:51:00;;;;;;;2.80;0.40;;;15.20;88.70;;;;;;5035761;28;20026;-75
2022/10/19 04:53:26;;;;;;;5.22;0.50;;;15.30;88.90;;;;;;5035899;28;20025;-75
2022/10/19 04:55:52;;;;;;;4.00;0.30;;;15.30;89.00;;;;;;5034759;28;20060;-75
2022/10/19 04:58:18;;;;;;;5.20;0.40;;;15.30;89.10;;;;;;5034957;28;20032;-74
2022/10/19 05:00:43;;;;;;;2.65;0.30;;;15.30;89.10;;;;;;5035833;28;20052;-75
2022/10/19 05:03:09;;;;;;;3.22;0.35;;;15.30;89.50;;;;;;5035881;28;20048;-75
2022/10/19 05:05:35;;;;;;;3.72;0.32;;;15.30;90.00;;;;;;5040460;28;20026;-74
2022/10/19 05:08:01;;;;;;;6.22;0.40;;;15.30;89.90;;;;;;5052133;28;20428;-75
2022/10/19 05:10:27;;;;;;;2.22;0.63;;;15.30;89.50;;;;;;5035457;28;20561;-75
2022/10/19 05:12:52;;;;;;;2.60;0.35;;;15.30;89.50;;;;;;5035228;28;20029;-75
2022/10/19 05:15:18;;;;;;;4.57;0.30;;;15.20;89.40;;;;;;5035240;28;20064;-75
2022/10/19 05:17:44;;;;;;;3.90;0.45;;;15.20;89.00;;;;;;5035319;28;20408;-75
2022/10/19 05:20:10;;;;;;;2.63;0.35;;;15.10;88.90;;;;;;5035496;28;20034;-75
2022/10/19 05:22:37;;;;;;;2.88;0.47;;;15.10;88.70;;;;;;5035162;28;20045;-75
2022/10/19 05:25:03;;;;;;;4.75;0.70;;;15.10;88.80;;;;;;5035187;28;20151;-75
2022/10/19 05:27:28;;;;;;;7.70;0.70;;;15.00;88.70;;;;;;5035370;28;20075;-75
2022/10/19 05:29:54;;;;;;;4.95;0.70;;;15.00;88.30;;;;;;5034672;28;20041;-75
2022/10/19 05:32:19;;;;;;;2.78;0.60;;;14.90;88.60;;;;;;5035140;28;20037;-74
2022/10/19 05:34:45;;;;;;;4.35;0.55;;;14.90;88.70;;;;;;5034944;28;20108;-75
2022/10/19 05:37:10;;;;;;;3.30;0.52;;;14.90;88.70;;;;;;5034863;28;20028;-75
2022/10/19 05:39:36;;;;;;;2.35;0.50;;;14.90;88.80;;;;;;5035195;28;20441;-75
2022/10/19 05:42:01;;;;;;;5.03;0.60;;;14.90;88.70;;;;;;5034874;28;20033;-75
2022/10/19 05:44:27;;;;;;;5.70;0.65;;;14.80;88.50;;;;;;5034588;28;20389;-75
2022/10/19 05:46:53;;;;;;;6.43;0.60;;;14.70;88.30;;;;;;5034990;28;20488;-73
2022/10/19 05:49:20;;;;;;;5.80;1.10;;;14.60;88.50;;;;;;5034215;28;20112;-75
2022/10/19 05:51:46;;;;;;;5.75;1.23;;;14.50;89.30;;;;;;5034751;28;20222;-76
2022/10/19 05:54:13;;;;;;;3.38;1.38;;;14.50;89.20;;;;;;5032227;28;20528;-73
2022/10/19 05:56:39;;;;;;;5.25;0.70;;;14.40;89.20;;;;;;5032633;28;20496;-73
2022/10/19 05:59:06;;;;;;;5.80;1.00;;;14.50;89.30;;;;;;5032421;28;20109;-74
2022/10/19 06:01:34;;;;;;;3.92;1.92;;;14.30;89.00;;;;;;5033341;28;20087;-74
2022/10/19 06:04:01;;;;;;;5.40;1.17;;;14.10;88.70;;;;;;5042480;28;20014;-72
2022/10/19 06:06:27;;;;;;;4.72;0.68;;;14.00;90.20;;;;;;5038348;28;20047;-74
2022/10/19 06:08:55;;;;;;;4.32;0.63;;;14.10;90.60;;;;;;5033044;28;20032;-74
2022/10/19 06:11:24;;;;;;;3.38;0.50;;;14.10;90.70;;;;;;5034344;28;20021;-76
2022/10/19 06:13:52;;;;;;;5.00;0.65;;;14.20;90.70;;;;;;5034268;28;20424;-74
2022/10/19 06:16:22;;;;;;;5.97;0.98;;;14.20;90.70;;;;;;5034055;28;20095;-75
2022/10/19 06:18:48;;;;;;;5.40;0.85;;;14.20;90.70;;;;;;5034176;28;20036;-78
2022/10/19 06:21:19;;;;;;;4.30;0.70;;;14.10;91.30;;;;;;5034407;28;20132;-77
2022/10/19 06:23:54;;;;;;;6.93;1.00;;;14.00;91.40;;;;;;5033549;28;20071;-79
2022/10/19 06:26:21;;;;;;;3.08;0.47;;;13.90;91.30;;;;;;5034180;28;20041;-77
2022/10/19 06:28:47;;;;;;;3.17;0.55;;;13.80;91.80;;;;;;5033466;28;20055;-76
2022/10/19 06:31:13;;;;;;;6.15;0.70;;;13.80;92.10;;;;;;5033470;28;20029;-77
2022/10/19 06:33:39;;;;;;;6.07;0.70;;;13.80;92.20;;;;;;5034432;28;20080;-74
2022/10/19 06:36:16;;;;;;;4.28;0.90;;;13.70;92.20;;;;;;5033553;28;20499;-74
2022/10/19 06:38:43;;;;;;;4.95;0.93;;;13.70;92.50;;;;;;5033416;28;20377;-74
2022/10/19 06:41:09;;;;;;;5.10;0.95;;;13.80;92.50;;;;;;5034055;28;20038;-74
2022/10/19 06:43:35;;;;;;;6.22;1.45;;;13.80;92.50;;;;;;5033888;28;20028;-76
2022/10/19 06:46:05;;;;;;;3.92;0.52;;;13.80;92.50;;;;;;5032086;28;20045;-76
2022/10/19 06:48:38;;;;;;;6.55;0.80;;;13.80;92.80;;;;;;5032300;28;20025;-76
2022/10/19 06:51:06;;;;;;;6.35;0.70;;;13.80;92.80;;;;;;5032154;28;20052;-75
2022/10/19 06:53:35;;;;;;;5.43;0.60;;;13.80;92.70;;;;;;5032845;28;20041;-75
2022/10/19 06:56:03;;;;;;;6.97;0.98;;;13.80;92.90;;;;;;5033441;28;20032;-73
2022/10/19 06:58:30;;;;;;;6.32;0.63;;;13.80;92.70;;;;;;5033323;28;20045;-73
2022/10/19 07:00:59;;;;;;;5.38;1.20;;;13.80;92.90;;;;;;5040809;28;20048;-71
2022/10/19 07:03:27;;;;;;;5.10;1.00;;;13.80;92.90;;;;;;5037850;28;20045;-72
2022/10/19 07:05:57;;;;;;;7.40;1.05;;;13.80;93.00;;;;;;5033151;28;20462;-73
2022/10/19 07:08:24;;;;;;;5.15;0.60;;;13.80;93.10;;;;;;5033126;28;20124;-76
2022/10/19 07:10:59;;;;;;;7.93;0.93;;;13.80;93.20;;;;;;5033271;28;20040;-76
2022/10/19 07:13:26;;;;;;;5.18;0.93;;;13.90;93.10;;;;;;5033534;28;20030;-74
2022/10/19 07:15:59;;;;;;;4.88;0.50;;;13.90;92.80;;;;;;5032775;28;20493;-74
2022/10/19 07:18:26;;;;;;;4.25;0.70;;;13.90;92.90;;;;;;5033149;28;20424;-74
2022/10/19 07:21:00;;;;;;;6.32;0.70;;;13.90;93.10;;;;;;5036238;28;20021;-75
2022/10/19 07:23:28;;;;;;;5.00;0.65;;;14.00;92.80;;;;;;5037244;28;20099;-76
2022/10/19 07:25:59;;;;;;;5.05;0.50;;;14.00;92.90;;;;;;5037090;28;20037;-75
2022/10/19 07:28:26;;;;;;;7.60;1.05;;;14.10;92.90;;;;;;5037549;28;20465;-74
2022/10/19 07:30:51;;;;;;;3.53;0.50;;;14.10;92.90;;;;;;5049498;28;20034;-75
2022/10/19 07:33:17;;;;;;;4.72;0.50;;;14.20;92.90;;;;;;5043464;28;20506;-76
2022/10/19 07:35:42;;;;;;;3.20;0.55;;;14.20;92.70;;;;;;5039998;28;20031;-75
2022/10/19 07:38:08;;;;;;;6.93;0.70;;;14.30;92.80;;;;;;5038911;28;20095;-77
2022/10/19 07:40:34;;;;;;;3.90;0.50;;;14.20;92.80;;;;;;5053201;28;20404;-77
2022/10/19 07:43:00;;;;;;;4.60;0.63;;;14.30;92.70;;;;;;5041328;28;20021;-76
2022/10/19 07:45:26;;;;;;;5.53;0.95;;;14.30;92.70;;;;;;5048179;28;20029;-77
2022/10/19 07:47:51;;;;;;;5.70;0.98;;;14.30;92.80;;;;;;5047335;28;20063;-77
2022/10/19 07:50:17;;;;;;;5.80;0.63;;;14.30;92.90;;;;;;5038210;28;20061;-77
2022/10/19 07:52:42;;;;;;;6.63;0.90;;;14.20;93.00;;;;;;5038749;28;20401;-76
2022/10/19 07:55:08;;;;;;;8.43;0.95;;;14.20;92.90;;;;;;5050699;28;20033;-76
2022/10/19 07:57:34;;;;;;;4.07;0.90;;;14.20;93.00;;;;;;5052665;28;20025;-75
2022/10/19 08:00:00;;;;;;;5.60;1.17;;;14.20;93.20;;;;;;5057300;28;20472;-77
2022/10/19 08:02:26;;;;;;;3.28;0.93;;;14.10;93.20;;;;;;5044736;28;20029;-76
2022/10/19 08:04:51;;;;;;;10.10;1.45;;;14.00;93.40;;;;;;5051858;28;20450;-77
2022/10/19 08:07:17;;;;;;;5.07;1.40;;;14.00;93.50;;;;;;5049826;28;20057;-77
2022/10/19 08:09:42;;;;;;;6.47;1.60;;;13.90;93.50;;;;;;5046771;28;20095;-76
2022/10/19 08:12:08;;;;;;;8.98;1.80;;;13.70;93.90;;;;;;5048801;28;20057;-73
2022/10/19 08:14:34;;;;;;;6.38;1.10;;;13.70;94.20;;;;;;5048468;28;20083;-76
2022/10/19 08:17:00;;;;;;;7.55;1.33;;;13.60;94.50;;;;;;5045653;28;20380;-75
2022/10/19 08:19:26;;;;;;;11.88;1.77;;;13.70;94.60;;;;;;5043283;28;20037;-76
2022/10/19 08:21:51;;;;;;;6.30;1.20;;;13.60;94.50;;;;;;5053763;28;20067;-76
2022/10/19 08:24:18;;;;;;;5.43;1.17;;;13.50;94.60;;;;;;5049494;28;20477;-75
2022/10/19 08:26:44;;;;;;;4.45;1.20;;;13.50;94.60;;;;;;5037050;28;20070;-77
2022/10/19 08:29:15;;;;;;;4.78;1.10;;;13.50;94.50;;;;;;5034836;28;20046;-77
2022/10/19 08:31:42;;;;;;;6.47;1.02;;;13.50;94.60;;;;;;5035318;28;20036;-77
2022/10/19 08:34:11;;;;;;;7.20;1.55;;;13.50;94.70;;;;;;5036133;28;20060;-76
2022/10/19 08:36:37;;;;;;;3.65;1.10;;;13.60;94.70;;;;;;5036368;28;20036;-76
2022/10/19 08:39:05;;;;;;;3.53;1.00;;;13.70;94.80;;;;;;5036147;28;20021;-76
2022/10/19 08:41:36;;;;;;;9.63;1.73;;;13.70;94.80;;;;;;5035386;28;20492;-76
2022/10/19 08:44:30;;;;;;;11.43;1.60;;;13.80;94.70;;;;;;5035988;28;20105;-76
2022/10/19 08:47:05;;;;;;;;;;;13.80;94.60;;;;;;5036126;28;20034;-77
2022/10/19 08:49:31;;;;;;;5.78;1.70;;;13.80;94.40;;;;;;5035898;28;20268;-76
2022/10/19 08:52:15;;;;;;;9.63;1.55;;;13.90;94.40;;;;;;5036020;28;20041;-75
2022/10/19 08:54:53;;;;;;;5.25;1.10;;;14.10;94.30;;;;;;5051629;28;20026;-74
2022/10/19 08:57:38;;;;;;;6.20;0.88;;;14.10;93.90;;;;;;5040501;28;20477;-76
2022/10/19 09:00:23;;;;;;;6.45;1.23;;;14.20;93.90;;;;;;5035260;28;20094;-76
2022/10/19 09:03:13;;;;;;;4.90;0.80;;;14.40;93.80;;;;;;5035569;28;20025;-75
2022/10/19 09:05:55;;;;;;;6.97;1.15;;;14.50;93.30;;;;;;5035233;28;20150;-75
2022/10/19 09:08:21;;;;;;;5.72;1.25;;;14.60;92.90;;;;;;5035448;28;20359;-75
2022/10/19 09:10:50;;;;;;;4.10;0.50;;;14.70;92.40;;;;;;5035875;28;20048;-76
2022/10/19 09:13:38;;;;;;;3.65;0.65;;;14.70;92.20;;;;;;5035403;28;20057;-77
2022/10/19 09:16:04;;;;;;;3.15;0.57;;;14.80;92.20;;;;;;5035208;28;20583;-76
2022/10/19 09:18:34;;;;;;;5.00;0.55;;;14.90;92.00;;;;;;5035183;28;20477;-76
2022/10/19 09:21:18;;;;;;;4.72;0.70;;;14.90;91.60;;;;;;5034785;28;20026;-76
2022/10/19 09:23:49;;;;;;;5.03;0.57;;;15.00;91.20;;;;;;5034875;28;20032;-75
2022/10/19 09:26:17;;;;;;;3.80;0.70;;;15.10;91.60;;;;;;5034775;28;20477;-74
2022/10/19 09:29:02;;;;;;;4.00;0.82;;;15.20;91.20;;;;;;5034701;28;20050;-75
2022/10/19 09:31:30;;;;;;;2.35;0.57;;;15.30;91.00;;;;;;5034780;28;20071;-78
2022/10/19 09:34:00;;;;;;;4.47;0.70;;;15.30;90.60;;;;;;5034901;28;20060;-76
2022/10/19 09:36:34;;;;;;;5.07;1.70;;;15.30;90.70;;;;;;5035209;28;20385;-75
2022/10/19 09:39:00;;;;;;;7.15;0.68;;;15.30;90.80;;;;;;5034855;28;20030;-75
2022/10/19 09:41:25;;;;;;;7.03;0.90;;;15.30;90.90;;;;;;5040932;28;20025;-77
2022/10/19 09:43:54;;;;;;;3.55;0.70;;;15.40;90.60;;;;;;5036711;28;20123;-75
2022/10/19 09:46:28;;;;;;;7.50;0.60;;;15.50;90.50;;;;;;5040418;28;20041;-76
2022/10/19 09:48:54;;;;;;;0.90;0.40;;;15.50;90.40;;;;;;5036297;28;20049;-75
2022/10/19 09:51:21;;;;;;;3.95;0.68;;;15.50;90.10;;;;;;5060063;28;20033;-75
2022/10/19 09:53:53;;;;;;;5.28;0.80;;;15.40;90.30;;;;;;5045617;28;20095;-76
2022/10/19 09:56:20;;;;;;;5.18;0.65;;;15.40;90.30;;;;;;5040672;28;20022;-77
2022/10/19 09:58:48;;;;;;;4.78;0.77;;;15.50;90.50;;;;;;5038656;28;21807;-77
2022/10/19 10:01:29;;;;;;;5.70;0.70;;;15.60;90.50;;;;;;5042946;28;20029;-77
2022/10/19 10:04:07;;;;;;;5.47;1.00;;;15.60;90.20;;;;;;5043764;28;20025;-77
2022/10/19 10:06:34;;;;;;;5.35;0.80;;;15.70;90.00;;;;;;5047852;28;20036;-77
2022/10/19 10:09:01;;;;;;;3.10;0.60;;;15.70;90.10;;;;;;5042485;28;20084;-77
2022/10/19 10:11:31;;;;;;;5.50;0.70;;;15.70;89.80;;;;;;5038837;28;20468;-80
2022/10/19 10:14:01;;;;;;;6.28;0.82;;;15.70;90.00;;;;;;5038887;28;20042;-78
2022/10/19 10:16:31;;;;;;;6.28;1.02;;;15.70;90.40;;;;;;5034160;28;20062;-75
2022/10/19 10:19:01;;;;;;;5.50;0.70;;;15.60;90.40;;;;;;5034248;28;20100;-78
2022/10/19 10:21:34;;;;;;;6.18;0.70;;;15.80;90.70;;;;;;5033836;28;20044;-75
2022/10/19 10:23:59;;;;;;;;;;;15.90;90.40;;;;;;5034118;28;20026;-75
2022/10/19 10:26:26;;;;;;;5.03;0.50;;;16.00;90.20;;;;;;5033996;28;20319;-75
2022/10/19 10:28:51;;;;;;;4.72;0.52;;;16.10;89.00;;;;;;5033522;28;20068;-75
2022/10/19 10:31:29;;;;;;;7.78;0.52;;;16.20;88.60;;;;;;5033800;28;20449;-75
2022/10/19 10:34:00;;;;;;;6.82;0.50;;;16.30;86.40;;;;;;5033495;28;20030;-74
2022/10/19 10:36:28;;;;;;;8.35;0.80;;;16.20;86.50;;;;;;5033500;28;20362;-75
2022/10/19 10:39:02;;;;;;;8.15;1.13;;;16.20;87.00;;;;;;5033812;28;20021;-75
2022/10/19 10:41:29;;;;;;;6.93;1.13;;;16.30;87.90;;;;;;5033832;28;20500;-74
2022/10/19 10:44:02;;;;;;;6.18;0.93;;;16.30;87.10;;;;;;5049054;28;20489;-74
2022/10/19 10:46:33;;;;;;;;;;;16.30;87.20;;;;;;5060963;28;20059;-73
2022/10/19 10:49:03;;;;;;;5.25;0.68;;;16.30;87.10;;;;;;5050926;28;19956;-75
2022/10/19 10:51:47;;;;;;;5.95;0.85;;;16.30;86.50;;;;;;5048807;28;20051;-75
2022/10/19 10:54:22;;;;;;;3.50;0.70;;;16.20;86.60;;;;;;5031841;28;20029;-77
2022/10/19 10:57:14;;;;;;;4.55;0.70;;;16.30;86.80;;;;;;5035278;28;20428;-76
2022/10/19 10:59:58;;;;;;;9.20;0.60;;;16.30;87.30;;;;;;5046831;28;20037;-77
2022/10/19 11:02:51;;;;;;;4.65;0.70;;;16.50;86.50;;;;;;5044594;28;20021;-78
2022/10/19 11:05:28;;;;;;;5.43;0.88;;;16.50;86.40;;;;;;5036413;28;20064;-80
2022/10/19 11:08:13;;;;;;;5.78;0.68;;;16.40;86.20;;;;;;5036685;28;20044;-78
2022/10/19 11:10:46;;;;;;;5.05;0.70;;;16.50;86.70;;;;;;5039574;28;20539;-78
2022/10/19 11:13:17;;;;;;;5.07;0.68;;;16.50;86.80;;;;;;5036490;28;20080;-75
2022/10/19 11:16:12;;;;;;;7.68;0.73;;;16.50;85.40;;;;;;5042107;28;20112;-78
2022/10/19 11:18:55;;;;;;;7.80;0.63;;;16.60;84.60;;;;;;5039835;28;20464;-78
2022/10/19 11:21:28;;;;;;;5.80;0.60;;;16.60;83.40;;;;;;5036844;28;20108;-78
2022/10/19 11:24:15;;;;;;;4.80;0.38;;;16.60;84.10;;;;;;5045618;28;20025;-78
2022/10/19 11:27:10;;;;;;;4.05;0.50;;;16.70;83.40;;;;;;5038916;28;20049;-78
2022/10/19 11:30:06;;;;;;;4.45;0.30;;;16.70;82.70;;;;;;5035094;28;20396;-78
2022/10/19 11:32:52;;;;;;;3.47;0.30;;;16.80;82.90;;;;;;5030168;28;20029;-78
2022/10/19 11:35:53;;;;;;;3.88;0.35;;;16.90;82.00;;;;;;5032996;28;20053;-77
2022/10/19 11:38:40;;;;;;;6.78;0.55;;;16.80;81.90;;;;;;5046163;28;20025;-77
2022/10/19 11:41:25;;;;;;;4.38;0.65;;;16.80;82.70;;;;;;5048403;28;20060;-77
2022/10/19 11:44:19;;;;;;;3.35;0.43;;;16.70;82.60;;;;;;5048351;28;20065;-75
2022/10/19 11:47:06;;;;;;;7.82;0.70;;;16.90;82.20;;;;;;5037796;28;20044;-78
2022/10/19 11:49:50;;;;;;;7.68;0.60;;;16.90;81.90;;;;;;5035137;28;20022;-79
2022/10/19 11:52:28;;;;;;;5.70;0.40;;;16.90;81.20;;;;;;5046318;28;20021;-77
2022/10/19 11:55:04;;;;;;;4.85;0.77;;;16.90;81.00;;;;;;5037787;28;20029;-79
2022/10/19 11:57:42;;;;;;;7.43;0.60;;;16.80;80.70;;;;;;5042312;28;20031;-76
2022/10/19 12:00:11;;;;;;;2.92;0.40;;;16.70;80.60;;;;;;5039901;28;20060;-77
2022/10/19 12:03:13;;;;;;;5.05;0.47;;;16.70;81.50;;;;;;5042858;28;20512;-77
2022/10/19 12:06:06;;;;;;;4.72;0.40;;;16.70;81.50;;;;;;5045078;28;20041;-77
2022/10/19 12:08:44;;;;;;;4.22;0.30;;;16.90;81.20;;;;;;5039262;28;20401;-77
2022/10/19 12:11:23;;;;;;;4.38;0.52;;;17.00;81.20;;;;;;5051612;28;20435;-77
2022/10/19 12:13:56;;;;;;;3.50;0.50;;;17.20;81.10;;;;;;5033510;28;20044;-76
2022/10/19 12:16:39;;;;;;;8.18;0.70;;;17.20;81.90;;;;;;5047834;28;20033;-77
2022/10/19 12:19:08;;;;;;;4.13;0.40;;;17.30;80.70;;;;;;5024065;28;20025;-77
2022/10/19 12:21:38;;;;;;;6.18;1.00;;;17.40;80.50;;;;;;5047755;28;20052;-77
2022/10/19 12:24:13;;;;;;;5.90;0.65;;;17.40;80.50;;;;;;5043859;28;20037;-77
2022/10/19 12:26:39;;;;;;;2.78;0.40;;;17.50;79.70;;;;;;5046272;28;20053;-77
2022/10/19 12:29:21;;;;;;;4.63;0.40;;;17.60;79.20;;;;;;5050990;28;20511;-77
2022/10/19 12:31:48;;;;;;;4.20;0.50;;;17.70;80.30;;;;;;5035575;28;20033;-74
2022/10/19 12:34:42;;;;;;;3.53;0.40;;;17.70;78.90;;;;;;5039493;28;20032;-74
2022/10/19 12:37:11;;;;;;;;;;;17.70;79.50;;;;;;5046388;28;20017;-72
2022/10/19 12:39:57;;;;;;;4.32;0.30;;;17.70;79.40;;;;;;5046215;28;19912;-76
2022/10/19 12:42:37;;;;;;;4.70;0.60;;;17.90;79.50;;;;;;5043946;28;20059;-77
2022/10/19 12:45:15;;;;;;;2.78;0.30;;;18.00;78.90;;;;;;5052562;28;20031;-75
2022/10/19 12:48:06;;;;;;;3.80;0.70;;;18.20;77.60;;;;;;5047987;28;20117;-80
2022/10/19 12:50:47;;;;;;;7.03;0.40;;;18.20;76.80;;;;;;5025070;28;20476;-77
2022/10/19 12:53:34;;;;;;;7.95;0.82;;;18.30;78.30;;;;;;5049099;28;20438;-77
2022/10/19 12:56:15;;;;;;;2.75;0.30;;;18.40;77.80;;;;;;5052517;28;20420;-77
2022/10/19 12:58:40;;;;;;;6.28;0.40;;;18.40;76.70;;;;;;5039049;28;20033;-77
2022/10/19 13:01:10;;;;;;;6.38;0.50;;;18.50;76.20;;;;;;5039971;28;20030;-80
2022/10/19 13:03:40;;;;;;;6.40;0.40;;;18.50;76.20;;;;;;5041846;28;20158;-78
2022/10/19 13:06:12;;;;;;;9.38;0.60;;;18.50;74.60;;;;;;5049508;28;20445;-81
2022/10/19 13:08:55;;;;;;;4.75;0.55;;;18.40;76.20;;;;;;5044088;28;20079;-77